Time;durP1;ratioP1;P1;durP2;ratioP2;P2;SDS_P1;SDS_P2;PMS_P1;PMS_P2;Temp;Humidity;BMP_temperature;BMP_pressure;BME280_temperature;BME280_humidity;BME280_pressure;Samples;Min_cycle;Max_cycle;Signal;HPM_P1;HPM_P2
2022/06/22 00:00:58;;;;;;;6.63;2.87;;;;;;;;;;5229028;28;20027;-76
2022/06/22 00:03:30;;;;;;;5.93;3.27;;;;;;;;;;5231028;28;20592;-75
2022/06/22 00:06:02;;;;;;;4.93;3.07;;;;;;;;;;5230593;28;20132;-76
2022/06/22 00:08:35;;;;;;;7.97;3.70;;;;;;;;;;5230203;28;20049;-76
2022/06/22 00:11:11;;;;;;;8.40;3.40;;;;;;;;;;5229215;28;20045;-76
2022/06/22 00:13:47;;;;;;;7.77;4.37;;;;;;;;;;5230056;28;20029;-77
2022/06/22 00:16:22;;;;;;;8.07;4.00;;;;;;;;;;5229682;28;20036;-76
2022/06/22 00:18:54;;;;;;;8.07;4.53;;;;;;;;;;5229581;28;20468;-76
2022/06/22 00:21:25;;;;;;;10.90;5.17;;;;;;;;;;5228243;28;20017;-76
2022/06/22 00:23:58;;;;;;;11.23;4.40;;;;;;;;;;5229114;28;20037;-76
2022/06/22 00:26:32;;;;;;;7.50;4.47;;;;;;;;;;5234123;28;20021;-76
2022/06/22 00:29:09;;;;;;;12.20;5.20;;;;;;;;;;5230518;28;20048;-76
2022/06/22 00:31:49;;;;;;;9.47;4.40;;;;;;;;;;5229055;28;20044;-76
2022/06/22 00:34:20;;;;;;;10.80;4.60;;;;;;;;;;5229964;28;20017;-76
2022/06/22 00:36:57;;;;;;;7.38;5.10;;;;;;;;;;5230352;28;20033;-75
2022/06/22 00:39:29;;;;;;;9.83;5.20;;;;;;;;;;5230098;28;20032;-74
2022/06/22 00:42:14;;;;;;;13.90;4.63;;;;;;;;;;5229099;28;20029;-75
2022/06/22 00:44:47;;;;;;;8.47;4.60;;;;;;;;;;5218384;28;20021;-75
2022/06/22 00:47:35;;;;;;;8.23;4.93;;;;;;;;;;5228909;28;20033;-74
2022/06/22 00:50:17;;;;;;;8.23;4.80;;;;;;;;;;5229185;28;20037;-75
2022/06/22 00:52:53;;;;;;;12.17;6.80;;;;;;;;;;5229421;28;20373;-75
2022/06/22 00:55:32;;;;;;;8.27;4.90;;;;;;;;;;5227280;28;20393;-75
2022/06/22 00:58:11;;;;;;;7.83;5.23;;;;;;;;;;5232924;28;20032;-75
2022/06/22 01:00:48;;;;;;;6.57;4.77;;;;;;;;;;5227810;28;20052;-76
2022/06/22 01:03:22;;;;;;;6.23;4.80;;;;;;;;;;5228745;28;20033;-75
2022/06/22 01:05:54;;;;;;;;;;;;;;;;;;5227901;28;20032;-76
2022/06/22 01:08:43;;;;;;;11.17;5.53;;;;;;;;;;5229696;28;19921;-75
2022/06/22 01:14:31;;;;;;;11.57;5.93;;;;;;;;;;5220766;22;20258;-75
2022/06/22 01:17:04;;;;;;;9.23;6.43;;;;;;;;;;5183901;28;21223;-75
2022/06/22 01:19:47;;;;;;;9.07;5.17;;;;;;;;;;5208297;28;20451;-75
2022/06/22 01:22:27;;;;;;;7.70;5.80;;;;;;;;;;5208219;28;20472;-75
2022/06/22 01:25:02;;;;;;;6.50;5.43;;;;;;;;;;5206796;28;20026;-75
2022/06/22 01:27:35;;;;;;;9.93;6.53;;;;;;;;;;5208357;28;20025;-75
2022/06/22 01:30:26;;;;;;;12.55;7.13;;;;;;;;;;5206642;28;20516;-75
2022/06/22 01:32:58;;;;;;;11.23;6.20;;;;;;;;;;5206347;28;20553;-75
2022/06/22 01:35:31;;;;;;;9.20;6.07;;;;;;;;;;5208749;28;20030;-74
2022/06/22 01:38:12;;;;;;;9.83;5.90;;;;;;;;;;5208370;28;20045;-75
2022/06/22 01:40:46;;;;;;;8.87;6.73;;;;;;;;;;5206086;28;20025;-75
2022/06/22 01:43:24;;;;;;;13.88;7.22;;;;;;;;;;5208194;28;20021;-75
2022/06/22 01:46:01;;;;;;;11.10;7.00;;;;;;;;;;5205727;28;20029;-76
2022/06/22 01:48:37;;;;;;;8.07;6.97;;;;;;;;;;5208310;28;20052;-75
2022/06/22 01:51:09;;;;;;;11.00;7.43;;;;;;;;;;5205865;28;20026;-75
2022/06/22 01:53:46;;;;;;;12.77;7.13;;;;;;;;;;5208181;28;20080;-75
2022/06/22 01:56:39;;;;;;;10.00;6.87;;;;;;;;;;5223319;28;20014;-74
2022/06/22 01:59:10;;;;;;;10.57;7.43;;;;;;;;;;5207174;28;20064;-75
2022/06/22 02:01:44;;;;;;;13.47;6.63;;;;;;;;;;5207466;28;20056;-75
2022/06/22 02:04:15;;;;;;;10.77;6.65;;;;;;;;;;5205971;28;20014;-74
2022/06/22 02:09:58;;;;;;;9.77;7.00;;;;;;;;;;5207913;28;20037;-76
2022/06/22 02:12:32;;;;;;;9.97;7.07;;;;;;;;;;5208099;28;20037;-76
2022/06/22 02:15:18;;;;;;;11.85;7.97;;;;;;;;;;5207144;28;20029;-75
2022/06/22 02:17:51;;;;;;;10.17;7.80;;;;;;;;;;5206587;28;20014;-76
2022/06/22 02:20:30;;;;;;;13.30;7.57;;;;;;;;;;5207413;28;20026;-76
2022/06/22 02:23:08;;;;;;;14.67;8.07;;;;;;;;;;5207482;28;20153;-76
2022/06/22 02:25:43;;;;;;;13.87;8.57;;;;;;;;;;5208387;28;20101;-76
2022/06/22 02:28:14;;;;;;;14.52;8.65;;;;;;;;;;5208168;28;21305;-76
2022/06/22 02:30:45;;;;;;;17.00;8.30;;;;;;;;;;5205525;28;20042;-76
2022/06/22 02:33:16;;;;;;;11.10;8.13;;;;;;;;;;5207599;28;20030;-76
2022/06/22 02:35:48;;;;;;;11.60;8.77;;;;;;;;;;5205829;28;20034;-76
2022/06/22 02:38:19;;;;;;;15.07;9.53;;;;;;;;;;5207212;28;20028;-76
2022/06/22 02:46:34;;;;;;;14.10;9.07;;;;;;;;;;5207503;28;20037;-74
2022/06/22 02:49:07;;;;;;;17.53;8.43;;;;;;;;;;5206756;28;20508;-75
2022/06/22 02:51:43;;;;;;;12.43;9.07;;;;;;;;;;5207149;28;20048;-75
2022/06/22 02:54:19;;;;;;;12.50;7.97;;;;;;;;;;5207688;28;20309;-75
2022/06/22 02:56:56;;;;;;;12.70;7.80;;;;;;;;;;5207109;28;20022;-75
2022/06/22 02:59:27;;;;;;;10.80;8.40;;;;;;;;;;5207541;28;20484;-75
2022/06/22 03:01:59;;;;;;;13.93;8.97;;;;;;;;;;5206102;28;20081;-75
2022/06/22 03:04:30;;;;;;;16.00;8.47;;;;;;;;;;5208353;28;20025;-75
2022/06/22 03:07:01;;;;;;;12.97;8.83;;;;;;;;;;5210580;28;20686;-75
2022/06/22 03:09:33;;;;;;;14.17;8.90;;;;;;;;;;5210570;28;20032;-76
2022/06/22 03:12:05;;;;;;;11.40;9.17;;;;;;;;;;5210730;28;20504;-76
2022/06/22 03:14:38;;;;;;;10.40;9.07;;;;;;;;;;5208599;28;20037;-76
2022/06/22 03:17:12;;;;;;;11.57;8.55;;;;;;;;;;5209601;28;20163;-75
2022/06/22 03:19:43;;;;;;;16.93;9.40;;;;;;;;;;5210355;28;20591;-76
2022/06/22 03:22:26;;;;;;;13.00;10.23;;;;;;;;;;5210499;28;20033;-76
2022/06/22 03:25:16;;;;;;;12.93;9.10;;;;;;;;;;5210101;28;20022;-76
2022/06/22 03:27:48;;;;;;;15.53;8.50;;;;;;;;;;5210752;28;20018;-75
2022/06/22 03:30:22;;;;;;;12.20;9.27;;;;;;;;;;5210203;28;20032;-75
2022/06/22 03:32:57;;;;;;;15.10;9.43;;;;;;;;;;5210183;28;20572;-75
2022/06/22 03:35:34;;;;;;;16.00;9.40;;;;;;;;;;5210252;28;20099;-76
2022/06/22 03:38:17;;;;;;;11.37;8.97;;;;;;;;;;5210081;28;20030;-76
2022/06/22 03:40:57;;;;;;;17.17;9.87;;;;;;;;;;5210107;28;20595;-75
2022/06/22 03:43:30;;;;;;;12.37;9.53;;;;;;;;;;5210239;28;20036;-75
2022/06/22 03:46:04;;;;;;;14.48;9.43;;;;;;;;;;5208684;28;20566;-75
2022/06/22 03:48:37;;;;;;;14.07;10.07;;;;;;;;;;5211186;28;20386;-76
2022/06/22 03:51:13;;;;;;;13.40;10.07;;;;;;;;;;5207681;28;20033;-76
2022/06/22 03:53:44;;;;;;;16.60;9.80;;;;;;;;;;5210429;28;20080;-76
2022/06/22 03:56:17;;;;;;;15.45;10.15;;;;;;;;;;5210000;28;20033;-76
2022/06/22 03:58:50;;;;;;;12.77;10.10;;;;;;;;;;5209394;28;20029;-76
2022/06/22 04:01:21;;;;;;;12.17;10.70;;;;;;;;;;5208512;28;20037;-76
2022/06/22 04:03:54;;;;;;;14.07;10.00;;;;;;;;;;5209562;28;20022;-76
2022/06/22 04:06:31;;;;;;;14.50;10.30;;;;;;;;;;5209060;28;20017;-76
2022/06/22 04:09:04;;;;;;;14.00;11.07;;;;;;;;;;5208736;28;20034;-76
2022/06/22 04:11:35;;;;;;;14.57;10.93;;;;;;;;;;5209946;28;20145;-75
2022/06/22 04:14:11;;;;;;;14.15;10.77;;;;;;;;;;5209370;28;20512;-75
2022/06/22 04:16:45;;;;;;;15.20;10.87;;;;;;;;;;5206175;28;20032;-76
2022/06/22 04:19:26;;;;;;;18.13;12.40;;;;;;;;;;5209710;28;20100;-75
2022/06/22 04:22:00;;;;;;;15.47;12.90;;;;;;;;;;5207449;28;20069;-75
2022/06/22 04:24:35;;;;;;;16.17;13.43;;;;;;;;;;5225028;28;20029;-76
2022/06/22 04:27:06;;;;;;;19.33;12.83;;;;;;;;;;5224282;28;20163;-75
2022/06/22 04:29:40;;;;;;;16.67;12.40;;;;;;;;;;5209910;28;20463;-75
2022/06/22 04:32:23;;;;;;;17.98;12.68;;;;;;;;;;5206724;28;20037;-76
2022/06/22 04:35:08;;;;;;;27.23;13.50;;;;;;;;;;5207010;28;20021;-76
2022/06/22 04:37:41;;;;;;;17.10;12.60;;;;;;;;;;5206066;28;20408;-76
2022/06/22 04:40:24;;;;;;;15.00;12.52;;;;;;;;;;5209081;28;20105;-76
2022/06/22 04:42:58;;;;;;;15.23;12.83;;;;;;;;;;5209392;28;20064;-76
2022/06/22 04:45:30;;;;;;;20.70;13.25;;;;;;;;;;5208527;28;20041;-76
2022/06/22 04:48:02;;;;;;;17.88;12.23;;;;;;;;;;5206906;28;20664;-76
2022/06/22 04:50:36;;;;;;;16.30;13.43;;;;;;;;;;5208995;28;20026;-76
2022/06/22 04:53:14;;;;;;;17.73;13.20;;;;;;;;;;5208016;28;20388;-75
2022/06/22 04:55:46;;;;;;;19.67;14.93;;;;;;;;;;5209372;28;20103;-75
2022/06/22 04:58:41;;;;;;;15.83;14.13;;;;;;;;;;5206536;28;20018;-75
2022/06/22 05:01:24;;;;;;;21.63;14.13;;;;;;;;;;5204733;28;20109;-75
2022/06/22 05:03:57;;;;;;;19.97;14.93;;;;;;;;;;5207852;28;20045;-75
2022/06/22 05:06:40;;;;;;;18.47;15.70;;;;;;;;;;5207290;28;20133;-74
2022/06/22 05:09:34;;;;;;;18.13;14.63;;;;;;;;;;5207451;28;20535;-74
2022/06/22 05:12:17;;;;;;;16.98;15.07;;;;;;;;;;5196708;28;20038;-78
2022/06/22 05:14:49;;;;;;;20.23;15.00;;;;;;;;;;5208656;28;20053;-77
2022/06/22 05:17:34;;;;;;;18.20;15.27;;;;;;;;;;5207495;28;20026;-77
2022/06/22 05:20:05;;;;;;;;;;;;;;;;;;5208518;28;20026;-76
2022/06/22 05:22:36;;;;;;;17.37;15.53;;;;;;;;;;5209034;28;19990;-81
2022/06/22 05:25:10;;;;;;;17.50;14.50;;;;;;;;;;5206360;28;20288;-80
2022/06/22 05:28:02;;;;;;;16.35;14.50;;;;;;;;;;5207966;28;20030;-81
2022/06/22 05:30:53;;;;;;;21.20;15.00;;;;;;;;;;5207845;28;20469;-75
2022/06/22 05:33:25;;;;;;;16.70;14.90;;;;;;;;;;5207572;28;20037;-76
2022/06/22 05:36:01;;;;;;;16.87;14.53;;;;;;;;;;5205449;28;20116;-81
2022/06/22 05:38:34;;;;;;;19.23;15.47;;;;;;;;;;5208926;28;20032;-83
2022/06/22 05:41:07;;;;;;;21.83;15.47;;;;;;;;;;5207495;28;20473;-77
2022/06/22 05:43:39;;;;;;;20.00;15.63;;;;;;;;;;5223612;28;20492;-76
2022/06/22 05:46:10;;;;;;;17.57;14.50;;;;;;;;;;5207345;28;20018;-77
2022/06/22 05:48:43;;;;;;;15.73;14.23;;;;;;;;;;5207579;28;20022;-77
2022/06/22 05:51:21;;;;;;;23.30;15.27;;;;;;;;;;5206425;28;20077;-78
2022/06/22 05:53:52;;;;;;;17.93;14.73;;;;;;;;;;5222493;28;20388;-77
2022/06/22 05:56:24;;;;;;;17.08;14.75;;;;;;;;;;5208153;28;20025;-76
2022/06/22 05:58:58;;;;;;;22.40;15.47;;;;;;;;;;5206828;28;20113;-76
2022/06/22 06:01:37;;;;;;;21.33;14.57;;;;;;;;;;5205130;28;20043;-78
2022/06/22 06:04:09;;;;;;;19.47;14.67;;;;;;;;;;5207514;28;20022;-79
2022/06/22 06:06:41;;;;;;;19.38;15.25;;;;;;;;;;5208227;28;20261;-77
2022/06/22 06:09:17;;;;;;;17.53;14.23;;;;;;;;;;5207516;28;20582;-77
2022/06/22 06:11:50;;;;;;;15.57;13.97;;;;;;;;;;5207208;28;20040;-77
2022/06/22 06:14:31;;;;;;;17.53;13.63;;;;;;;;;;5219339;28;20072;-77
2022/06/22 06:17:09;;;;;;;17.93;14.03;;;;;;;;;;5208514;28;20100;-77
2022/06/22 06:19:42;;;;;;;16.90;13.87;;;;;;;;;;5208113;28;20038;-83
2022/06/22 06:22:13;;;;;;;17.10;14.07;;;;;;;;;;5221842;28;20068;-83
2022/06/22 06:27:44;;;;;;;18.83;14.90;;;;;;;;;;5207629;28;20492;-77
2022/06/22 06:30:30;;;;;;;21.73;15.37;;;;;;;;;;5205983;28;20137;-79
2022/06/22 06:33:10;;;;;;;17.23;15.30;;;;;;;;;;5207266;28;20034;-80
2022/06/22 06:35:47;;;;;;;17.33;14.07;;;;;;;;;;5200118;28;20029;-79
2022/06/22 06:38:27;;;;;;;17.80;15.23;;;;;;;;;;5205692;28;20026;-77
2022/06/22 06:41:23;;;;;;;21.73;14.27;;;;;;;;;;5209992;28;20481;-77
2022/06/22 06:44:01;;;;;;;19.23;14.87;;;;;;;;;;5209778;28;20026;-77
2022/06/22 06:46:52;;;;;;;19.43;14.20;;;;;;;;;;5211327;28;20555;-75
2022/06/22 06:49:26;;;;;;;15.87;13.97;;;;;;;;;;5211771;28;20452;-77
2022/06/22 06:52:01;;;;;;;17.70;12.25;;;;;;;;;;5210379;28;20112;-78
2022/06/22 06:54:51;;;;;;;16.77;12.00;;;;;;;;;;5211643;28;20060;-79
2022/06/22 06:57:23;;;;;;;14.70;12.93;;;;;;;;;;5214539;28;20029;-77
2022/06/22 06:59:56;;;;;;;17.17;12.87;;;;;;;;;;5210452;28;20502;-75
2022/06/22 07:02:32;;;;;;;19.47;12.60;;;;;;;;;;5211093;28;20030;-83
2022/06/22 07:05:05;;;;;;;15.77;11.27;;;;;;;;;;5194011;28;20018;-81
2022/06/22 07:07:45;;;;;;;18.50;12.95;;;;;;;;;;5210525;28;20034;-80
2022/06/22 07:10:23;;;;;;;15.73;11.73;;;;;;;;;;5211084;28;20049;-86
2022/06/22 07:12:59;;;;;;;15.63;11.70;;;;;;;;;;5210039;28;20408;-81
2022/06/22 07:15:35;;;;;;;20.83;11.93;;;;;;;;;;5210024;28;20039;-83
2022/06/22 07:18:24;;;;;;;18.47;10.53;;;;;;;;;;5211266;28;20037;-76
2022/06/22 07:21:12;;;;;;;17.20;11.53;;;;;;;;;;5209852;28;20472;-83
2022/06/22 07:23:45;;;;;;;17.47;10.17;;;;;;;;;;5211119;28;20017;-80
2022/06/22 07:26:28;;;;;;;19.95;11.52;;;;;;;;;;5209581;28;20022;-78
2022/06/22 07:29:22;;;;;;;15.83;9.53;;;;;;;;;;5208794;28;20010;-74
2022/06/22 07:32:19;;;;;;;16.33;9.73;;;;;;;;;;5210089;28;20037;-80
2022/06/22 07:34:54;;;;;;;17.27;9.60;;;;;;;;;;5205552;28;20025;-81
2022/06/22 07:37:33;;;;;;;13.50;8.77;;;;;;;;;;5209385;28;20073;-80
2022/06/22 07:40:15;;;;;;;15.43;9.40;;;;;;;;;;5209709;28;20021;-81
2022/06/22 07:42:49;;;;;;;13.90;9.43;;;;;;;;;;5207910;28;20024;-81
2022/06/22 07:45:21;;;;;;;11.85;9.20;;;;;;;;;;5209144;28;20028;-80
2022/06/22 07:48:05;;;;;;;15.63;8.60;;;;;;;;;;5209820;28;20361;-82
2022/06/22 07:50:41;;;;;;;13.55;7.05;;;;;;;;;;5207608;28;20018;-82
2022/06/22 07:53:16;;;;;;;13.10;6.70;;;;;;;;;;5205199;28;20033;-80
2022/06/22 07:56:05;;;;;;;12.23;6.40;;;;;;;;;;5209116;28;20022;-82
2022/06/22 07:58:40;;;;;;;13.52;6.78;;;;;;;;;;5209290;28;20025;-83
2022/06/22 08:01:14;;;;;;;11.60;7.32;;;;;;;;;;5208491;28;20084;-83
2022/06/22 08:03:55;;;;;;;11.52;6.22;;;;;;;;;;5210244;28;20112;-83
2022/06/22 08:06:29;;;;;;;11.90;5.97;;;;;;;;;;5210563;28;20382;-83
2022/06/22 08:09:05;;;;;;;9.98;5.80;;;;;;;;;;5208531;28;20520;-82
2022/06/22 08:11:37;;;;;;;11.13;5.70;;;;;;;;;;5209843;28;20456;-83
2022/06/22 08:14:13;;;;;;;12.93;5.65;;;;;;;;;;5206876;28;20034;-82
2022/06/22 08:16:47;;;;;;;10.93;5.57;;;;;;;;;;5208098;28;20037;-82
2022/06/22 08:19:19;;;;;;;9.50;5.35;;;;;;;;;;5208987;28;20034;-82
2022/06/22 08:21:51;;;;;;;15.02;8.00;;;;;;;;;;5208525;28;20026;-83
2022/06/22 08:24:23;;;;;;;8.90;6.53;;;;;;;;;;5209076;28;20025;-83
2022/06/22 08:26:55;;;;;;;14.98;6.38;;;;;;;;;;5208331;28;20504;-77
2022/06/22 08:29:28;;;;;;;8.68;5.60;;;;;;;;;;5208766;28;20051;-74
2022/06/22 08:32:09;;;;;;;10.73;6.93;;;;;;;;;;5206693;28;20057;-80
2022/06/22 08:34:44;;;;;;;11.88;5.97;;;;;;;;;;5209219;28;20025;-80
2022/06/22 08:37:35;;;;;;;12.77;7.05;;;;;;;;;;5208509;28;20018;-81
2022/06/22 08:40:07;;;;;;;10.23;4.82;;;;;;;;;;5208806;28;20149;-80
2022/06/22 08:42:38;;;;;;;9.27;4.25;;;;;;;;;;5209133;28;20097;-79
2022/06/22 08:45:09;;;;;;;11.23;3.85;;;;;;;;;;5208260;28;20016;-79
2022/06/22 08:47:59;;;;;;;8.07;4.15;;;;;;;;;;5208129;28;20468;-80
2022/06/22 08:50:51;;;;;;;9.60;4.72;;;;;;;;;;5209332;28;20627;-80
2022/06/22 08:53:53;;;;;;;9.80;3.80;;;;;;;;;;5197460;28;20033;-81
2022/06/22 08:56:32;;;;;;;8.05;3.10;;;;;;;;;;5208577;28;20506;-79
2022/06/22 08:59:12;;;;;;;9.18;3.95;;;;;;;;;;5208650;28;20017;-80
2022/06/22 09:02:00;;;;;;;9.43;3.72;;;;;;;;;;5207668;28;20022;-80
2022/06/22 09:04:51;;;;;;;9.40;3.42;;;;;;;;;;5209326;28;20026;-81
2022/06/22 09:07:40;;;;;;;9.35;3.35;;;;;;;;;;5209541;28;20022;-82
2022/06/22 09:10:16;;;;;;;9.80;3.10;;;;;;;;;;5208259;28;20064;-81
2022/06/22 09:13:06;;;;;;;10.75;3.28;;;;;;;;;;5212728;28;20061;-83
2022/06/22 09:15:49;;;;;;;7.18;2.85;;;;;;;;;;5201569;28;20088;-82
2022/06/22 09:18:33;;;;;;;5.82;2.90;;;;;;;;;;5207215;28;20049;-83
2022/06/22 09:21:24;;;;;;;6.57;2.38;;;;;;;;;;5219456;28;20071;-81
2022/06/22 09:23:55;;;;;;;6.85;2.50;;;;;;;;;;5206279;28;20114;-81
2022/06/22 09:26:35;;;;;;;5.32;2.20;;;;;;;;;;5207922;28;20026;-81
2022/06/22 09:29:19;;;;;;;5.07;1.98;;;;;;;;;;5207952;28;20018;-81
2022/06/22 09:31:50;;;;;;;4.78;2.00;;;;;;;;;;5207119;28;20025;-86
2022/06/22 09:34:29;;;;;;;6.38;2.67;;;;;;;;;;5205376;28;20029;-86
2022/06/22 09:37:08;;;;;;;7.82;2.10;;;;;;;;;;5206945;28;20048;-87
2022/06/22 09:39:57;;;;;;;9.65;2.47;;;;;;;;;;5207683;28;20018;-83
2022/06/22 09:42:41;;;;;;;6.03;2.42;;;;;;;;;;5207541;28;20026;-85
2022/06/22 09:45:30;;;;;;;5.20;1.73;;;;;;;;;;5208685;28;20010;-86
2022/06/22 09:48:20;;;;;;;5.32;2.17;;;;;;;;;;5209114;28;20060;-89
2022/06/22 09:50:51;;;;;;;3.95;1.77;;;;;;;;;;5224481;28;20481;-89
2022/06/22 09:53:28;;;;;;;8.25;2.40;;;;;;;;;;5208557;28;20033;-88
2022/06/22 09:56:22;;;;;;;10.52;2.13;;;;;;;;;;5207682;28;20025;-89
2022/06/22 09:59:07;;;;;;;6.20;1.92;;;;;;;;;;5207764;28;20025;-79
2022/06/22 10:01:54;;;;;;;4.38;1.98;;;;;;;;;;5208853;28;20664;-89
2022/06/22 10:04:34;;;;;;;5.82;2.05;;;;;;;;;;5208103;28;20033;-88
2022/06/22 10:07:05;;;;;;;9.32;2.83;;;;;;;;;;5207811;28;20021;-86
2022/06/22 10:09:36;;;;;;;7.20;2.30;;;;;;;;;;5208331;28;20126;-85
2022/06/22 10:12:14;;;;;;;5.55;2.05;;;;;;;;;;5208266;28;20469;-85
2022/06/22 10:14:45;;;;;;;6.40;1.95;;;;;;;;;;5208652;28;20288;-83
2022/06/22 10:17:28;;;;;;;7.63;1.80;;;;;;;;;;5217675;28;20033;-81
2022/06/22 10:19:59;;;;;;;;;;;;;;;;;;5212264;28;20018;-81
2022/06/22 10:22:49;;;;;;;6.82;1.88;;;;;;;;;;5209823;28;19924;-82
2022/06/22 10:25:33;;;;;;;6.53;2.58;;;;;;;;;;5210950;28;20469;-84
2022/06/22 10:28:26;;;;;;;5.07;2.20;;;;;;;;;;5210051;28;20025;-86
2022/06/22 10:31:03;;;;;;;6.55;1.73;;;;;;;;;;5210675;28;20481;-84
2022/06/22 10:33:49;;;;;;;7.82;1.85;;;;;;;;;;5226598;28;20014;-82
2022/06/22 10:36:21;;;;;;;6.07;2.10;;;;;;;;;;5213595;28;20107;-88
2022/06/22 10:38:58;;;;;;;9.38;1.88;;;;;;;;;;5211696;28;20469;-85
2022/06/22 10:47:34;;;;;;;3.83;1.73;;;;;;;;;;5211144;28;20021;-84
2022/06/22 10:50:25;;;;;;;5.93;2.55;;;;;;;;;;5209939;28;20055;-83
2022/06/22 10:53:08;;;;;;;5.43;2.13;;;;;;;;;;5210305;28;20361;-83
2022/06/22 10:55:58;;;;;;;7.35;2.10;;;;;;;;;;5211498;28;20028;-80
2022/06/22 10:58:45;;;;;;;9.13;1.98;;;;;;;;;;5212130;28;20014;-78
2022/06/22 11:01:24;;;;;;;6.15;2.28;;;;;;;;;;5210180;28;20116;-88
2022/06/22 11:03:57;;;;;;;4.40;1.98;;;;;;;;;;5206655;28;20108;-87
2022/06/22 11:06:47;;;;;;;5.80;2.10;;;;;;;;;;5212102;28;20061;-86
2022/06/22 11:09:18;;;;;;;4.70;1.75;;;;;;;;;;5210931;28;20034;-85
2022/06/22 11:11:58;;;;;;;6.32;1.48;;;;;;;;;;5212167;28;20036;-87
2022/06/22 11:14:35;;;;;;;4.78;2.10;;;;;;;;;;5210431;28;20783;-86
2022/06/22 11:17:13;;;;;;;6.00;1.95;;;;;;;;;;5211747;28;20074;-85
2022/06/22 11:20:03;;;;;;;9.55;1.65;;;;;;;;;;5227673;28;20029;-84
2022/06/22 11:22:48;;;;;;;7.00;2.00;;;;;;;;;;5215848;28;20100;-89
2022/06/22 11:31:51;;;;;;;6.78;2.05;;;;;;;;;;5211397;28;20041;-88
2022/06/22 11:34:44;;;;;;;4.97;1.40;;;;;;;;;;5210898;28;20021;-85
2022/06/22 11:37:30;;;;;;;6.05;1.58;;;;;;;;;;5210281;28;20021;-85
2022/06/22 11:40:11;;;;;;;7.55;2.30;;;;;;;;;;5210670;28;20080;-86
2022/06/22 11:42:49;;;;;;;5.80;1.67;;;;;;;;;;5210672;28;20075;-78
2022/06/22 11:45:51;;;;;;;6.60;1.63;;;;;;;;;;5209766;28;20405;-81
2022/06/22 11:48:37;;;;;;;9.10;1.80;;;;;;;;;;5208860;28;20647;-80
2022/06/22 11:51:13;;;;;;;8.02;1.58;;;;;;;;;;5208003;28;20180;-85
2022/06/22 11:53:54;;;;;;;4.68;1.73;;;;;;;;;;5209369;28;20026;-76
2022/06/22 11:56:25;;;;;;;6.80;2.28;;;;;;;;;;5209441;28;20072;-75
2022/06/22 11:59:10;;;;;;;5.88;2.17;;;;;;;;;;5222833;28;20489;-80
2022/06/22 12:02:09;;;;;;;10.60;2.05;;;;;;;;;;5209822;28;20308;-77
2022/06/22 12:04:55;;;;;;;3.47;1.30;;;;;;;;;;5209147;28;20080;-74
2022/06/22 12:07:32;;;;;;;5.90;1.70;;;;;;;;;;5216942;28;20021;-79
2022/06/22 12:10:09;;;;;;;6.05;1.70;;;;;;;;;;5230410;28;20032;-76
2022/06/22 12:13:00;;;;;;;5.80;1.75;;;;;;;;;;5230970;28;20036;-84
2022/06/22 12:15:43;;;;;;;7.03;1.50;;;;;;;;;;5227227;28;20041;-82
2022/06/22 12:18:21;;;;;;;25.58;3.63;;;;;;;;;;5208384;28;20030;-80
2022/06/22 12:20:52;;;;;;;6.90;2.50;;;;;;;;;;5210189;28;20088;-86
2022/06/22 12:23:48;;;;;;;4.95;1.20;;;;;;;;;;5210017;28;20014;-85
2022/06/22 12:26:22;;;;;;;6.38;1.40;;;;;;;;;;5209122;28;20275;-84
2022/06/22 12:29:11;;;;;;;4.93;1.58;;;;;;;;;;5208543;28;20026;-84
2022/06/22 12:31:47;;;;;;;5.90;1.92;;;;;;;;;;5209303;28;20061;-82
2022/06/22 12:34:25;;;;;;;3.85;1.30;;;;;;;;;;5209165;28;20029;-83
2022/06/22 12:36:58;;;;;;;6.80;1.30;;;;;;;;;;5208135;28;20026;-82
2022/06/22 12:39:38;;;;;;;3.15;1.15;;;;;;;;;;5209052;28;20873;-82
2022/06/22 12:42:22;;;;;;;5.20;1.85;;;;;;;;;;5208558;28;20033;-80
2022/06/22 12:45:03;;;;;;;4.38;1.33;;;;;;;;;;5206766;28;20009;-82
2022/06/22 12:47:51;;;;;;;4.18;1.27;;;;;;;;;;5224127;28;20552;-78
2022/06/22 12:50:44;;;;;;;6.15;1.48;;;;;;;;;;5209416;28;20069;-79
2022/06/22 12:53:20;;;;;;;13.67;1.63;;;;;;;;;;5208780;28;20489;-80
2022/06/22 12:55:53;;;;;;;5.63;1.75;;;;;;;;;;5208038;28;20053;-81
2022/06/22 12:58:32;;;;;;;6.50;1.67;;;;;;;;;;5208914;28;20104;-79
2022/06/22 13:01:04;;;;;;;5.53;1.25;;;;;;;;;;5207450;28;20021;-82
2022/06/22 13:03:38;;;;;;;3.55;1.50;;;;;;;;;;5208122;28;20400;-82
2022/06/22 13:06:10;;;;;;;6.22;1.55;;;;;;;;;;5204470;28;20030;-81
2022/06/22 13:08:41;;;;;;;4.95;1.58;;;;;;;;;;5212797;28;20028;-82
2022/06/22 13:11:15;;;;;;;7.10;2.00;;;;;;;;;;5207782;28;20033;-82
2022/06/22 13:13:56;;;;;;;6.55;1.40;;;;;;;;;;5207138;28;20058;-83
2022/06/22 13:16:30;;;;;;;4.82;1.30;;;;;;;;;;5209491;28;20524;-82
2022/06/22 13:19:13;;;;;;;3.70;1.60;;;;;;;;;;5209127;28;20056;-84
2022/06/22 13:21:47;;;;;;;8.20;1.38;;;;;;;;;;5209703;28;20029;-84
2022/06/22 13:24:21;;;;;;;7.25;1.35;;;;;;;;;;5208877;28;20354;-83
2022/06/22 13:27:10;;;;;;;3.00;1.10;;;;;;;;;;5205144;28;20029;-85
2022/06/22 13:29:50;;;;;;;4.20;1.38;;;;;;;;;;5208356;28;20029;-81
2022/06/22 13:32:22;;;;;;;5.20;1.30;;;;;;;;;;5208122;28;20185;-85
2022/06/22 13:34:56;;;;;;;3.47;1.20;;;;;;;;;;5208796;28;20034;-81
2022/06/22 13:37:34;;;;;;;4.82;1.05;;;;;;;;;;5204767;28;20456;-79
2022/06/22 13:40:26;;;;;;;5.32;1.52;;;;;;;;;;5207122;28;20029;-79
2022/06/22 13:43:16;;;;;;;21.70;1.90;;;;;;;;;;5207850;28;20030;-81
2022/06/22 13:46:12;;;;;;;4.55;1.50;;;;;;;;;;5222250;28;20130;-80
2022/06/22 13:49:09;;;;;;;5.97;1.58;;;;;;;;;;5207381;28;20014;-80
2022/06/22 13:51:53;;;;;;;3.92;1.73;;;;;;;;;;5203648;28;20044;-81
2022/06/22 13:54:27;;;;;;;5.78;1.48;;;;;;;;;;5207898;28;20022;-80
2022/06/22 13:57:02;;;;;;;9.65;1.23;;;;;;;;;;5222570;28;20030;-82
2022/06/22 13:59:33;;;;;;;6.75;1.60;;;;;;;;;;5207377;28;20025;-82
2022/06/22 14:02:17;;;;;;;3.78;1.40;;;;;;;;;;5205076;28;21215;-82
2022/06/22 14:04:58;;;;;;;6.55;1.10;;;;;;;;;;5208012;28;20034;-86
2022/06/22 14:07:35;;;;;;;6.22;1.25;;;;;;;;;;5206682;28;20033;-85
2022/06/22 14:10:15;;;;;;;3.50;1.17;;;;;;;;;;5207360;28;20022;-85
2022/06/22 14:13:06;;;;;;;3.35;1.35;;;;;;;;;;5205733;28;20042;-85
2022/06/22 14:15:47;;;;;;;4.00;1.17;;;;;;;;;;5207667;28;20476;-81
2022/06/22 14:18:28;;;;;;;4.70;1.40;;;;;;;;;;5208438;28;20026;-83
2022/06/22 14:21:26;;;;;;;3.22;1.15;;;;;;;;;;5207626;28;20101;-82
2022/06/22 14:23:58;;;;;;;3.88;1.08;;;;;;;;;;5203496;28;20438;-79
2022/06/22 14:26:29;;;;;;;4.75;1.00;;;;;;;;;;5207117;28;20014;-81
2022/06/22 14:29:17;;;;;;;4.70;0.93;;;;;;;;;;5212381;28;20037;-83
2022/06/22 14:31:53;;;;;;;7.10;1.92;;;;;;;;;;5210470;28;20347;-83
2022/06/22 14:34:34;;;;;;;2.60;1.38;;;;;;;;;;5208034;28;20109;-79
2022/06/22 14:37:16;;;;;;;3.88;1.08;;;;;;;;;;5205358;28;20431;-78
2022/06/22 14:39:54;;;;;;;12.15;1.10;;;;;;;;;;5194761;28;20022;-77
2022/06/22 14:42:34;;;;;;;4.93;1.10;;;;;;;;;;5205383;28;20037;-77
2022/06/22 14:45:09;;;;;;;5.97;1.10;;;;;;;;;;5202522;28;20076;-78
2022/06/22 14:47:40;;;;;;;5.88;1.13;;;;;;;;;;5219219;28;20036;-78
2022/06/22 14:50:29;;;;;;;2.97;1.15;;;;;;;;;;5206030;28;20033;-81
2022/06/22 14:53:01;;;;;;;7.28;1.25;;;;;;;;;;5203394;28;20331;-76
2022/06/22 14:55:36;;;;;;;7.50;1.60;;;;;;;;;;5206730;28;20025;-77
2022/06/22 14:58:15;;;;;;;8.98;1.38;;;;;;;;;;5205699;28;20025;-78
2022/06/22 15:00:49;;;;;;;6.93;1.30;;;;;;;;;;5203900;28;20048;-80
2022/06/22 15:03:33;;;;;;;5.20;1.23;;;;;;;;;;5211530;28;20038;-82
2022/06/22 15:06:09;;;;;;;2.55;0.90;;;;;;;;;;5210242;28;20460;-83
2022/06/22 15:08:40;;;;;;;6.93;0.90;;;;;;;;;;5212175;28;20542;-84
2022/06/22 15:14:16;;;;;;;7.53;1.05;;;;;;;;;;5210773;28;20285;-82
2022/06/22 15:16:55;;;;;;;6.10;1.52;;;;;;;;;;5210708;28;20076;-85
2022/06/22 15:19:29;;;;;;;3.03;1.17;;;;;;;;;;5227261;28;20113;-83
2022/06/22 15:22:07;;;;;;;6.75;1.52;;;;;;;;;;5211959;28;20064;-85
2022/06/22 15:24:44;;;;;;;6.22;1.55;;;;;;;;;;5212466;28;20021;-83
2022/06/22 15:27:23;;;;;;;4.07;1.58;;;;;;;;;;5211191;28;20010;-84
2022/06/22 15:29:58;;;;;;;2.70;0.93;;;;;;;;;;5210344;28;20033;-83
2022/06/22 15:32:34;;;;;;;3.47;1.15;;;;;;;;;;5212096;28;20529;-81
2022/06/22 15:35:19;;;;;;;3.67;1.10;;;;;;;;;;5210349;28;20713;-81
2022/06/22 15:37:56;;;;;;;2.72;1.00;;;;;;;;;;5211403;28;20024;-80
2022/06/22 15:40:30;;;;;;;1.92;0.90;;;;;;;;;;5211326;28;20014;-81
2022/06/22 15:43:01;;;;;;;3.75;1.10;;;;;;;;;;5210043;28;20026;-82
2022/06/22 15:45:32;;;;;;;2.55;0.90;;;;;;;;;;5206750;28;20024;-82
2022/06/22 15:48:06;;;;;;;3.97;1.65;;;;;;;;;;5209640;28;20620;-82
2022/06/22 15:50:41;;;;;;;4.97;1.27;;;;;;;;;;5229099;28;20299;-82
2022/06/22 15:53:13;;;;;;;2.35;1.00;;;;;;;;;;5223878;28;20037;-82
2022/06/22 15:56:01;;;;;;;4.82;1.40;;;;;;;;;;5206876;28;20461;-82
2022/06/22 15:58:39;;;;;;;3.25;1.67;;;;;;;;;;5207279;28;20018;-81
2022/06/22 16:01:12;;;;;;;5.45;2.17;;;;;;;;;;5209933;28;20050;-81
2022/06/22 16:03:46;;;;;;;4.38;1.38;;;;;;;;;;5210006;28;20067;-81
2022/06/22 16:06:25;;;;;;;3.97;0.95;;;;;;;;;;5210364;28;20026;-81
2022/06/22 16:09:07;;;;;;;4.60;1.20;;;;;;;;;;5221776;28;20037;-75
2022/06/22 16:14:51;;;;;;;3.65;1.10;;;;;;;;;;5208278;28;20046;-75